sensor_id;sensor_type;location;lat;lon;timestamp;temperature;humidity
52867;DHT22;38739;53.324;6.862;2022-12-22T00:01:44;7.90;99.90
52867;DHT22;38739;53.324;6.862;2022-12-22T00:04:30;7.90;99.90
52867;DHT22;38739;53.324;6.862;2022-12-22T00:07:14;7.90;99.90
52867;DHT22;38739;53.324;6.862;2022-12-22T00:09:58;7.90;99.90
52867;DHT22;38739;53.324;6.862;2022-12-22T00:12:42;7.90;99.90
52867;DHT22;38739;53.324;6.862;2022-12-22T00:15:28;7.90;99.90
52867;DHT22;38739;53.324;6.862;2022-12-22T00:18:14;7.90;99.90
52867;DHT22;38739;53.324;6.862;2022-12-22T00:20:59;7.90;99.90
52867;DHT22;38739;53.324;6.862;2022-12-22T00:23:43;7.90;99.90
52867;DHT22;38739;53.324;6.862;2022-12-22T00:26:31;7.90;99.90
52867;DHT22;38739;53.324;6.862;2022-12-22T00:29:16;7.90;99.90
52867;DHT22;38739;53.324;6.862;2022-12-22T00:32:01;7.90;99.90
52867;DHT22;38739;53.324;6.862;2022-12-22T00:34:46;7.90;99.90
52867;DHT22;38739;53.324;6.862;2022-12-22T00:37:33;7.90;99.90
52867;DHT22;38739;53.324;6.862;2022-12-22T00:40:25;7.90;99.90
52867;DHT22;38739;53.324;6.862;2022-12-22T00:43:10;7.90;99.90
52867;DHT22;38739;53.324;6.862;2022-12-22T00:45:54;7.90;99.90
52867;DHT22;38739;53.324;6.862;2022-12-22T00:48:41;7.90;99.90
52867;DHT22;38739;53.324;6.862;2022-12-22T00:51:26;8.00;99.90
52867;DHT22;38739;53.324;6.862;2022-12-22T00:54:12;8.00;99.90
52867;DHT22;38739;53.324;6.862;2022-12-22T00:56:59;7.90;99.90
52867;DHT22;38739;53.324;6.862;2022-12-22T00:59:44;8.00;99.90
52867;DHT22;38739;53.324;6.862;2022-12-22T01:02:29;7.90;99.90
52867;DHT22;38739;53.324;6.862;2022-12-22T01:05:13;8.00;99.90
52867;DHT22;38739;53.324;6.862;2022-12-22T01:07:58;7.90;99.90
52867;DHT22;38739;53.324;6.862;2022-12-22T01:10:43;8.00;99.90
52867;DHT22;38739;53.324;6.862;2022-12-22T01:13:28;8.00;99.90
52867;DHT22;38739;53.324;6.862;2022-12-22T01:16:15;8.00;99.90
52867;DHT22;38739;53.324;6.862;2022-12-22T01:19:00;8.00;99.90
52867;DHT22;38739;53.324;6.862;2022-12-22T01:21:44;8.00;99.90
52867;DHT22;38739;53.324;6.862;2022-12-22T01:24:28;8.00;99.90
52867;DHT22;38739;53.324;6.862;2022-12-22T01:27:14;8.00;99.90
52867;DHT22;38739;53.324;6.862;2022-12-22T01:29:58;8.00;99.90
52867;DHT22;38739;53.324;6.862;2022-12-22T01:32:42;8.00;99.90
52867;DHT22;38739;53.324;6.862;2022-12-22T01:35:30;8.00;99.90
52867;DHT22;38739;53.324;6.862;2022-12-22T01:38:14;8.00;99.90
52867;DHT22;38739;53.324;6.862;2022-12-22T01:40:59;8.00;99.90
52867;DHT22;38739;53.324;6.862;2022-12-22T01:43:45;8.00;99.90
52867;DHT22;38739;53.324;6.862;2022-12-22T01:46:36;8.00;99.90
52867;DHT22;38739;53.324;6.862;2022-12-22T01:49:40;8.00;99.90
52867;DHT22;38739;53.324;6.862;2022-12-22T01:52:29;8.00;99.90
52867;DHT22;38739;53.324;6.862;2022-12-22T01:55:16;8.00;99.90
52867;DHT22;38739;53.324;6.862;2022-12-22T01:58:04;8.10;99.90
52867;DHT22;38739;53.324;6.862;2022-12-22T02:00:49;8.00;99.90
52867;DHT22;38739;53.324;6.862;2022-12-22T02:03:33;8.00;99.90
52867;DHT22;38739;53.324;6.862;2022-12-22T02:06:37;8.10;99.90
52867;DHT22;38739;53.324;6.862;2022-12-22T02:13:00;8.10;99.90
52867;DHT22;38739;53.324;6.862;2022-12-22T02:15:52;8.00;99.90
52867;DHT22;38739;53.324;6.862;2022-12-22T02:21:58;8.10;99.90
52867;DHT22;38739;53.324;6.862;2022-12-22T02:24:50;8.10;99.90
52867;DHT22;38739;53.324;6.862;2022-12-22T02:27:37;8.00;99.90
52867;DHT22;38739;53.324;6.862;2022-12-22T02:30:24;8.10;99.90
52867;DHT22;38739;53.324;6.862;2022-12-22T02:33:09;8.10;99.90
52867;DHT22;38739;53.324;6.862;2022-12-22T02:36:25;8.00;99.90
52867;DHT22;38739;53.324;6.862;2022-12-22T02:40:09;8.00;99.90
52867;DHT22;38739;53.324;6.862;2022-12-22T02:43:01;8.10;99.90
52867;DHT22;38739;53.324;6.862;2022-12-22T02:45:59;8.10;99.90
52867;DHT22;38739;53.324;6.862;2022-12-22T02:48:49;8.10;99.90
52867;DHT22;38739;53.324;6.862;2022-12-22T02:51:41;8.10;99.90
52867;DHT22;38739;53.324;6.862;2022-12-22T02:54:27;8.10;99.90
52867;DHT22;38739;53.324;6.862;2022-12-22T02:57:15;8.00;99.90
52867;DHT22;38739;53.324;6.862;2022-12-22T03:00:00;8.00;99.90
52867;DHT22;38739;53.324;6.862;2022-12-22T03:02:44;8.10;99.90
52867;DHT22;38739;53.324;6.862;2022-12-22T03:05:28;8.10;99.90
52867;DHT22;38739;53.324;6.862;2022-12-22T03:08:12;8.10;99.90
52867;DHT22;38739;53.324;6.862;2022-12-22T03:10:56;8.10;99.90
52867;DHT22;38739;53.324;6.862;2022-12-22T03:13:40;8.00;99.90
52867;DHT22;38739;53.324;6.862;2022-12-22T03:16:24;8.10;99.90
52867;DHT22;38739;53.324;6.862;2022-12-22T03:19:08;8.10;99.90
52867;DHT22;38739;53.324;6.862;2022-12-22T03:21:52;8.10;99.90
52867;DHT22;38739;53.324;6.862;2022-12-22T03:24:36;8.10;99.90
52867;DHT22;38739;53.324;6.862;2022-12-22T03:27:20;8.10;99.90
52867;DHT22;38739;53.324;6.862;2022-12-22T03:29:46;8.10;99.90
52867;DHT22;38739;53.324;6.862;2022-12-22T03:32:12;8.00;99.90
52867;DHT22;38739;53.324;6.862;2022-12-22T03:34:37;8.10;99.90
52867;DHT22;38739;53.324;6.862;2022-12-22T03:37:03;8.10;99.90
52867;DHT22;38739;53.324;6.862;2022-12-22T03:39:29;8.10;99.90
52867;DHT22;38739;53.324;6.862;2022-12-22T03:41:54;8.10;99.90
52867;DHT22;38739;53.324;6.862;2022-12-22T03:44:38;8.00;99.90
52867;DHT22;38739;53.324;6.862;2022-12-22T03:47:46;8.00;99.90
52867;DHT22;38739;53.324;6.862;2022-12-22T03:50:18;8.00;99.90
52867;DHT22;38739;53.324;6.862;2022-12-22T03:52:47;8.00;99.90
52867;DHT22;38739;53.324;6.862;2022-12-22T03:55:16;8.10;99.90
52867;DHT22;38739;53.324;6.862;2022-12-22T03:57:46;8.10;99.90
52867;DHT22;38739;53.324;6.862;2022-12-22T04:00:24;8.10;99.90
52867;DHT22;38739;53.324;6.862;2022-12-22T04:02:50;8.10;99.90
52867;DHT22;38739;53.324;6.862;2022-12-22T04:05:16;8.10;99.90
52867;DHT22;38739;53.324;6.862;2022-12-22T04:07:42;8.10;99.90
52867;DHT22;38739;53.324;6.862;2022-12-22T04:10:08;8.10;99.90
52867;DHT22;38739;53.324;6.862;2022-12-22T04:12:52;8.10;99.90
52867;DHT22;38739;53.324;6.862;2022-12-22T04:15:19;8.00;99.90
52867;DHT22;38739;53.324;6.862;2022-12-22T04:17:45;8.10;99.90
52867;DHT22;38739;53.324;6.862;2022-12-22T04:20:11;8.10;99.90
52867;DHT22;38739;53.324;6.862;2022-12-22T04:22:37;8.10;99.90
52867;DHT22;38739;53.324;6.862;2022-12-22T04:25:03;8.10;99.90
52867;DHT22;38739;53.324;6.862;2022-12-22T04:27:29;8.10;99.90
52867;DHT22;38739;53.324;6.862;2022-12-22T04:29:55;8.00;99.90
52867;DHT22;38739;53.324;6.862;2022-12-22T04:32:20;8.10;99.90
52867;DHT22;38739;53.324;6.862;2022-12-22T04:34:46;8.10;99.90
52867;DHT22;38739;53.324;6.862;2022-12-22T04:37:11;8.10;99.90
52867;DHT22;38739;53.324;6.862;2022-12-22T04:39:37;8.10;99.90
52867;DHT22;38739;53.324;6.862;2022-12-22T04:42:03;8.00;99.90
52867;DHT22;38739;53.324;6.862;2022-12-22T04:44:28;8.00;99.90
52867;DHT22;38739;53.324;6.862;2022-12-22T04:46:54;8.10;99.90
52867;DHT22;38739;53.324;6.862;2022-12-22T04:49:20;8.10;99.90
52867;DHT22;38739;53.324;6.862;2022-12-22T04:51:45;8.00;99.90
52867;DHT22;38739;53.324;6.862;2022-12-22T04:54:11;8.00;99.90
52867;DHT22;38739;53.324;6.862;2022-12-22T04:56:37;8.10;99.90
52867;DHT22;38739;53.324;6.862;2022-12-22T04:59:02;8.00;99.90
52867;DHT22;38739;53.324;6.862;2022-12-22T05:01:28;8.00;99.90
52867;DHT22;38739;53.324;6.862;2022-12-22T05:03:54;8.00;99.90
52867;DHT22;38739;53.324;6.862;2022-12-22T05:06:19;8.10;99.90
52867;DHT22;38739;53.324;6.862;2022-12-22T05:08:45;8.00;99.90
52867;DHT22;38739;53.324;6.862;2022-12-22T05:11:11;8.00;99.90
52867;DHT22;38739;53.324;6.862;2022-12-22T05:13:37;8.00;99.90
52867;DHT22;38739;53.324;6.862;2022-12-22T05:16:09;8.00;99.90
52867;DHT22;38739;53.324;6.862;2022-12-22T05:18:36;8.00;99.90
52867;DHT22;38739;53.324;6.862;2022-12-22T05:21:13;8.00;99.90
52867;DHT22;38739;53.324;6.862;2022-12-22T05:23:39;8.00;99.90
52867;DHT22;38739;53.324;6.862;2022-12-22T05:26:06;8.00;99.90
52867;DHT22;38739;53.324;6.862;2022-12-22T05:28:31;7.90;99.90
52867;DHT22;38739;53.324;6.862;2022-12-22T05:31:05;7.90;99.90
52867;DHT22;38739;53.324;6.862;2022-12-22T05:33:31;7.90;99.90
52867;DHT22;38739;53.324;6.862;2022-12-22T05:35:57;7.90;99.90
52867;DHT22;38739;53.324;6.862;2022-12-22T05:38:23;7.90;99.90
52867;DHT22;38739;53.324;6.862;2022-12-22T05:40:48;7.90;99.90
52867;DHT22;38739;53.324;6.862;2022-12-22T05:43:14;7.90;99.90
52867;DHT22;38739;53.324;6.862;2022-12-22T05:45:43;7.80;99.90
52867;DHT22;38739;53.324;6.862;2022-12-22T05:48:09;7.90;99.90
52867;DHT22;38739;53.324;6.862;2022-12-22T05:50:34;7.80;99.90
52867;DHT22;38739;53.324;6.862;2022-12-22T05:53:00;7.80;99.90
52867;DHT22;38739;53.324;6.862;2022-12-22T05:55:25;7.80;99.90
52867;DHT22;38739;53.324;6.862;2022-12-22T05:57:51;7.80;99.90
52867;DHT22;38739;53.324;6.862;2022-12-22T06:00:17;7.80;99.90
52867;DHT22;38739;53.324;6.862;2022-12-22T06:02:43;7.80;99.90
52867;DHT22;38739;53.324;6.862;2022-12-22T06:05:11;7.70;99.90
52867;DHT22;38739;53.324;6.862;2022-12-22T06:07:36;7.70;99.90
52867;DHT22;38739;53.324;6.862;2022-12-22T06:10:04;7.70;99.90
52867;DHT22;38739;53.324;6.862;2022-12-22T06:12:30;7.60;99.90
52867;DHT22;38739;53.324;6.862;2022-12-22T06:14:56;7.50;99.90
52867;DHT22;38739;53.324;6.862;2022-12-22T06:17:21;7.50;99.90
52867;DHT22;38739;53.324;6.862;2022-12-22T06:19:47;7.40;99.90
52867;DHT22;38739;53.324;6.862;2022-12-22T06:22:13;7.40;99.90
52867;DHT22;38739;53.324;6.862;2022-12-22T06:24:39;7.30;99.90
52867;DHT22;38739;53.324;6.862;2022-12-22T06:27:05;7.20;99.90
52867;DHT22;38739;53.324;6.862;2022-12-22T06:29:31;7.20;99.90
52867;DHT22;38739;53.324;6.862;2022-12-22T06:31:57;7.10;99.90
52867;DHT22;38739;53.324;6.862;2022-12-22T06:34:23;7.10;99.90
52867;DHT22;38739;53.324;6.862;2022-12-22T06:36:49;7.10;99.90
52867;DHT22;38739;53.324;6.862;2022-12-22T06:39:15;7.00;99.90
52867;DHT22;38739;53.324;6.862;2022-12-22T06:41:41;7.00;99.90
52867;DHT22;38739;53.324;6.862;2022-12-22T06:44:25;6.90;99.90
52867;DHT22;38739;53.324;6.862;2022-12-22T06:46:51;6.80;99.90
52867;DHT22;38739;53.324;6.862;2022-12-22T06:49:17;6.80;99.90
52867;DHT22;38739;53.324;6.862;2022-12-22T06:51:43;6.70;99.90
52867;DHT22;38739;53.324;6.862;2022-12-22T06:54:09;6.70;99.90
52867;DHT22;38739;53.324;6.862;2022-12-22T06:56:34;6.60;99.90
52867;DHT22;38739;53.324;6.862;2022-12-22T06:59:00;6.60;99.90
52867;DHT22;38739;53.324;6.862;2022-12-22T07:01:26;6.50;99.90
52867;DHT22;38739;53.324;6.862;2022-12-22T07:03:52;6.50;99.90
52867;DHT22;38739;53.324;6.862;2022-12-22T07:06:18;6.40;99.90
52867;DHT22;38739;53.324;6.862;2022-12-22T07:08:45;6.40;99.90
52867;DHT22;38739;53.324;6.862;2022-12-22T07:11:11;6.30;99.90
52867;DHT22;38739;53.324;6.862;2022-12-22T07:13:37;6.20;99.90
52867;DHT22;38739;53.324;6.862;2022-12-22T07:16:06;6.20;99.90
52867;DHT22;38739;53.324;6.862;2022-12-22T07:18:34;6.20;99.90
52867;DHT22;38739;53.324;6.862;2022-12-22T07:21:01;6.10;99.90
52867;DHT22;38739;53.324;6.862;2022-12-22T07:23:28;6.10;99.90
52867;DHT22;38739;53.324;6.862;2022-12-22T07:25:54;6.10;99.90
52867;DHT22;38739;53.324;6.862;2022-12-22T07:28:20;6.00;99.90
52867;DHT22;38739;53.324;6.862;2022-12-22T07:30:46;6.00;99.90
52867;DHT22;38739;53.324;6.862;2022-12-22T07:33:12;6.00;99.90
52867;DHT22;38739;53.324;6.862;2022-12-22T07:35:38;6.00;99.90
52867;DHT22;38739;53.324;6.862;2022-12-22T07:38:03;6.10;99.90
52867;DHT22;38739;53.324;6.862;2022-12-22T07:40:29;6.10;99.90
52867;DHT22;38739;53.324;6.862;2022-12-22T07:42:59;6.10;99.90
52867;DHT22;38739;53.324;6.862;2022-12-22T07:45:25;6.20;99.90
52867;DHT22;38739;53.324;6.862;2022-12-22T07:47:57;6.20;99.90
52867;DHT22;38739;53.324;6.862;2022-12-22T07:50:22;6.20;99.90
52867;DHT22;38739;53.324;6.862;2022-12-22T07:52:58;6.10;99.90
52867;DHT22;38739;53.324;6.862;2022-12-22T07:55:26;6.10;99.90
52867;DHT22;38739;53.324;6.862;2022-12-22T07:57:53;6.20;99.90
52867;DHT22;38739;53.324;6.862;2022-12-22T08:00:19;6.20;99.90
52867;DHT22;38739;53.324;6.862;2022-12-22T08:02:54;6.10;99.90
52867;DHT22;38739;53.324;6.862;2022-12-22T08:05:20;6.10;99.90
52867;DHT22;38739;53.324;6.862;2022-12-22T08:07:50;6.20;99.90
52867;DHT22;38739;53.324;6.862;2022-12-22T08:10:17;6.20;99.90
52867;DHT22;38739;53.324;6.862;2022-12-22T08:12:43;6.10;99.90
52867;DHT22;38739;53.324;6.862;2022-12-22T08:15:10;6.10;99.90
52867;DHT22;38739;53.324;6.862;2022-12-22T08:17:36;6.10;99.90
52867;DHT22;38739;53.324;6.862;2022-12-22T08:20:03;6.10;99.90
52867;DHT22;38739;53.324;6.862;2022-12-22T08:22:29;6.10;99.90
52867;DHT22;38739;53.324;6.862;2022-12-22T08:24:55;6.10;99.90
52867;DHT22;38739;53.324;6.862;2022-12-22T08:27:57;6.10;99.90
52867;DHT22;38739;53.324;6.862;2022-12-22T08:30:23;6.10;99.90
52867;DHT22;38739;53.324;6.862;2022-12-22T08:32:49;6.10;99.90
52867;DHT22;38739;53.324;6.862;2022-12-22T08:35:16;6.10;99.90
52867;DHT22;38739;53.324;6.862;2022-12-22T08:37:43;6.10;99.90
52867;DHT22;38739;53.324;6.862;2022-12-22T08:40:17;6.10;99.90
52867;DHT22;38739;53.324;6.862;2022-12-22T08:42:44;6.10;99.90
52867;DHT22;38739;53.324;6.862;2022-12-22T08:45:10;6.20;99.90
52867;DHT22;38739;53.324;6.862;2022-12-22T08:47:35;6.20;99.90
52867;DHT22;38739;53.324;6.862;2022-12-22T08:50:02;6.20;99.90
52867;DHT22;38739;53.324;6.862;2022-12-22T08:52:28;6.20;99.90
52867;DHT22;38739;53.324;6.862;2022-12-22T08:54:54;6.20;99.90
52867;DHT22;38739;53.324;6.862;2022-12-22T08:57:20;6.20;99.90
52867;DHT22;38739;53.324;6.862;2022-12-22T08:59:45;6.20;99.90
52867;DHT22;38739;53.324;6.862;2022-12-22T09:02:12;6.20;99.90
52867;DHT22;38739;53.324;6.862;2022-12-22T09:04:38;6.30;99.90
52867;DHT22;38739;53.324;6.862;2022-12-22T09:07:04;6.20;99.90
52867;DHT22;38739;53.324;6.862;2022-12-22T09:09:31;6.30;99.90
52867;DHT22;38739;53.324;6.862;2022-12-22T09:11:58;6.30;99.90
52867;DHT22;38739;53.324;6.862;2022-12-22T09:14:24;6.30;99.90
52867;DHT22;38739;53.324;6.862;2022-12-22T09:16:49;6.30;99.90
52867;DHT22;38739;53.324;6.862;2022-12-22T09:19:15;6.30;99.90
52867;DHT22;38739;53.324;6.862;2022-12-22T09:21:41;6.30;99.90
52867;DHT22;38739;53.324;6.862;2022-12-22T09:24:07;6.30;99.90
52867;DHT22;38739;53.324;6.862;2022-12-22T09:26:33;6.30;99.90
52867;DHT22;38739;53.324;6.862;2022-12-22T09:28:59;6.30;99.90
52867;DHT22;38739;53.324;6.862;2022-12-22T09:31:25;6.30;99.90
52867;DHT22;38739;53.324;6.862;2022-12-22T09:33:52;6.30;99.90
52867;DHT22;38739;53.324;6.862;2022-12-22T09:36:21;6.40;99.90
52867;DHT22;38739;53.324;6.862;2022-12-22T09:38:47;6.40;99.90
52867;DHT22;38739;53.324;6.862;2022-12-22T09:41:35;6.40;99.90
52867;DHT22;38739;53.324;6.862;2022-12-22T09:44:25;6.40;99.90
52867;DHT22;38739;53.324;6.862;2022-12-22T09:46:53;6.40;99.90
52867;DHT22;38739;53.324;6.862;2022-12-22T09:49:21;6.50;99.90
52867;DHT22;38739;53.324;6.862;2022-12-22T09:51:51;6.50;99.90
52867;DHT22;38739;53.324;6.862;2022-12-22T09:54:17;6.50;99.90
52867;DHT22;38739;53.324;6.862;2022-12-22T09:56:44;6.50;99.90
52867;DHT22;38739;53.324;6.862;2022-12-22T09:59:11;6.60;99.90
52867;DHT22;38739;53.324;6.862;2022-12-22T10:01:57;6.60;99.90
52867;DHT22;38739;53.324;6.862;2022-12-22T10:09:47;6.80;99.90
52867;DHT22;38739;53.324;6.862;2022-12-22T10:12:19;6.80;99.90
52867;DHT22;38739;53.324;6.862;2022-12-22T10:14:47;6.90;99.90
52867;DHT22;38739;53.324;6.862;2022-12-22T10:17:26;7.00;99.90
52867;DHT22;38739;53.324;6.862;2022-12-22T10:22:57;7.20;99.90
52867;DHT22;38739;53.324;6.862;2022-12-22T10:25:37;7.40;99.90
52867;DHT22;38739;53.324;6.862;2022-12-22T10:28:07;7.50;99.90
52867;DHT22;38739;53.324;6.862;2022-12-22T10:30:36;7.70;99.90
52867;DHT22;38739;53.324;6.862;2022-12-22T10:33:05;7.80;99.90
52867;DHT22;38739;53.324;6.862;2022-12-22T10:35:55;7.90;99.90
52867;DHT22;38739;53.324;6.862;2022-12-22T10:38:30;7.90;99.90
52867;DHT22;38739;53.324;6.862;2022-12-22T10:41:02;8.00;99.90
52867;DHT22;38739;53.324;6.862;2022-12-22T10:43:34;8.00;99.90
52867;DHT22;38739;53.324;6.862;2022-12-22T10:46:02;8.10;99.90
52867;DHT22;38739;53.324;6.862;2022-12-22T10:48:35;8.30;99.90
52867;DHT22;38739;53.324;6.862;2022-12-22T10:51:02;8.30;99.90
52867;DHT22;38739;53.324;6.862;2022-12-22T10:56:11;8.30;99.90
52867;DHT22;38739;53.324;6.862;2022-12-22T10:58:50;8.40;99.90
52867;DHT22;38739;53.324;6.862;2022-12-22T11:01:27;8.40;99.90
52867;DHT22;38739;53.324;6.862;2022-12-22T11:03:53;8.30;99.90
52867;DHT22;38739;53.324;6.862;2022-12-22T11:06:19;8.20;99.90
52867;DHT22;38739;53.324;6.862;2022-12-22T11:08:47;8.20;99.90
52867;DHT22;38739;53.324;6.862;2022-12-22T11:14:44;8.20;99.90
52867;DHT22;38739;53.324;6.862;2022-12-22T11:17:41;8.30;99.90
52867;DHT22;38739;53.324;6.862;2022-12-22T11:23:06;8.40;99.90
52867;DHT22;38739;53.324;6.862;2022-12-22T11:36:58;8.20;99.90
52867;DHT22;38739;53.324;6.862;2022-12-22T11:39:44;8.20;99.90
52867;DHT22;38739;53.324;6.862;2022-12-22T12:12:25;8.00;99.90
52867;DHT22;38739;53.324;6.862;2022-12-22T12:15:20;8.00;99.90
52867;DHT22;38739;53.324;6.862;2022-12-22T12:21:09;8.10;99.90
52867;DHT22;38739;53.324;6.862;2022-12-22T12:32:27;8.00;99.90
52867;DHT22;38739;53.324;6.862;2022-12-22T12:38:09;8.00;99.90
52867;DHT22;38739;53.324;6.862;2022-12-22T12:43:03;8.00;99.90
52867;DHT22;38739;53.324;6.862;2022-12-22T12:45:41;8.00;99.90
52867;DHT22;38739;53.324;6.862;2022-12-22T12:50:49;8.00;99.90
52867;DHT22;38739;53.324;6.862;2022-12-22T12:53:22;8.00;99.90
52867;DHT22;38739;53.324;6.862;2022-12-22T13:01:10;8.00;99.90
52867;DHT22;38739;53.324;6.862;2022-12-22T13:03:43;8.00;99.90
52867;DHT22;38739;53.324;6.862;2022-12-22T13:06:46;8.00;99.90
52867;DHT22;38739;53.324;6.862;2022-12-22T13:11:33;8.00;99.90
52867;DHT22;38739;53.324;6.862;2022-12-22T13:14:00;8.00;99.90
52867;DHT22;38739;53.324;6.862;2022-12-22T13:16:28;8.00;99.90
52867;DHT22;38739;53.324;6.862;2022-12-22T13:18:55;8.00;99.90
52867;DHT22;38739;53.324;6.862;2022-12-22T13:21:27;8.10;99.90
52867;DHT22;38739;53.324;6.862;2022-12-22T13:26:37;8.10;99.90
52867;DHT22;38739;53.324;6.862;2022-12-22T13:29:43;8.10;99.90
52867;DHT22;38739;53.324;6.862;2022-12-22T13:32:19;8.10;99.90
52867;DHT22;38739;53.324;6.862;2022-12-22T13:37:26;8.20;99.90
52867;DHT22;38739;53.324;6.862;2022-12-22T13:40:13;8.20;99.90
52867;DHT22;38739;53.324;6.862;2022-12-22T13:48:00;8.20;99.90
52867;DHT22;38739;53.324;6.862;2022-12-22T13:50:34;8.20;99.90
52867;DHT22;38739;53.324;6.862;2022-12-22T13:53:01;8.20;99.90
52867;DHT22;38739;53.324;6.862;2022-12-22T13:55:29;8.20;99.90
52867;DHT22;38739;53.324;6.862;2022-12-22T13:58:07;8.10;99.90
52867;DHT22;38739;53.324;6.862;2022-12-22T14:00:37;8.20;99.90
52867;DHT22;38739;53.324;6.862;2022-12-22T14:03:12;8.20;99.90
52867;DHT22;38739;53.324;6.862;2022-12-22T14:05:41;8.20;99.90
52867;DHT22;38739;53.324;6.862;2022-12-22T14:08:08;8.20;99.90
52867;DHT22;38739;53.324;6.862;2022-12-22T14:13:03;8.10;99.90
52867;DHT22;38739;53.324;6.862;2022-12-22T14:15:31;8.20;99.90
52867;DHT22;38739;53.324;6.862;2022-12-22T14:17:56;8.20;99.90
52867;DHT22;38739;53.324;6.862;2022-12-22T14:20:32;8.20;99.90
52867;DHT22;38739;53.324;6.862;2022-12-22T14:23:21;8.20;99.90
52867;DHT22;38739;53.324;6.862;2022-12-22T14:25:50;8.20;99.90
52867;DHT22;38739;53.324;6.862;2022-12-22T14:28:38;8.10;99.90
52867;DHT22;38739;53.324;6.862;2022-12-22T14:31:11;8.20;99.90
52867;DHT22;38739;53.324;6.862;2022-12-22T14:33:37;8.20;99.90
52867;DHT22;38739;53.324;6.862;2022-12-22T14:38:38;8.20;99.90
52867;DHT22;38739;53.324;6.862;2022-12-22T14:41:31;8.20;99.90
52867;DHT22;38739;53.324;6.862;2022-12-22T14:52:42;8.20;99.90
52867;DHT22;38739;53.324;6.862;2022-12-22T14:55:30;8.20;99.90
52867;DHT22;38739;53.324;6.862;2022-12-22T14:58:15;8.20;99.90
52867;DHT22;38739;53.324;6.862;2022-12-22T15:00:46;8.20;99.90
52867;DHT22;38739;53.324;6.862;2022-12-22T15:03:32;8.20;99.90
52867;DHT22;38739;53.324;6.862;2022-12-22T15:09:04;8.10;99.90
52867;DHT22;38739;53.324;6.862;2022-12-22T15:11:48;8.20;99.90
52867;DHT22;38739;53.324;6.862;2022-12-22T15:14:18;8.20;99.90
52867;DHT22;38739;53.324;6.862;2022-12-22T15:16:45;8.10;99.90
52867;DHT22;38739;53.324;6.862;2022-12-22T15:19:16;8.10;99.90
52867;DHT22;38739;53.324;6.862;2022-12-22T15:21:43;8.10;99.90
52867;DHT22;38739;53.324;6.862;2022-12-22T15:24:13;8.00;99.90
52867;DHT22;38739;53.324;6.862;2022-12-22T15:26:40;8.00;99.90
52867;DHT22;38739;53.324;6.862;2022-12-22T15:29:07;8.00;99.90
52867;DHT22;38739;53.324;6.862;2022-12-22T15:31:33;8.00;99.90
52867;DHT22;38739;53.324;6.862;2022-12-22T15:34:00;8.00;99.90
52867;DHT22;38739;53.324;6.862;2022-12-22T15:36:27;8.00;99.90
52867;DHT22;38739;53.324;6.862;2022-12-22T15:38:53;7.90;99.90
52867;DHT22;38739;53.324;6.862;2022-12-22T15:41:19;7.90;99.90
52867;DHT22;38739;53.324;6.862;2022-12-22T15:43:44;7.90;99.90
52867;DHT22;38739;53.324;6.862;2022-12-22T15:46:14;7.90;99.90
52867;DHT22;38739;53.324;6.862;2022-12-22T15:48:41;7.90;99.90
52867;DHT22;38739;53.324;6.862;2022-12-22T15:51:19;7.90;99.90
52867;DHT22;38739;53.324;6.862;2022-12-22T15:53:45;7.90;99.90
52867;DHT22;38739;53.324;6.862;2022-12-22T15:56:14;7.90;99.90
52867;DHT22;38739;53.324;6.862;2022-12-22T15:58:41;7.90;99.90
52867;DHT22;38739;53.324;6.862;2022-12-22T16:01:12;7.90;99.90
52867;DHT22;38739;53.324;6.862;2022-12-22T16:03:37;7.90;99.90
52867;DHT22;38739;53.324;6.862;2022-12-22T16:06:04;7.90;99.90
52867;DHT22;38739;53.324;6.862;2022-12-22T16:08:34;7.90;99.90
52867;DHT22;38739;53.324;6.862;2022-12-22T16:11:03;7.90;99.90
52867;DHT22;38739;53.324;6.862;2022-12-22T16:13:30;7.90;99.90
52867;DHT22;38739;53.324;6.862;2022-12-22T16:15:56;7.80;99.90
52867;DHT22;38739;53.324;6.862;2022-12-22T16:18:22;7.80;99.90
52867;DHT22;38739;53.324;6.862;2022-12-22T16:20:48;7.90;99.90
52867;DHT22;38739;53.324;6.862;2022-12-22T16:23:20;7.90;99.90
52867;DHT22;38739;53.324;6.862;2022-12-22T16:25:47;7.90;99.90
52867;DHT22;38739;53.324;6.862;2022-12-22T16:28:16;7.80;99.90
52867;DHT22;38739;53.324;6.862;2022-12-22T16:30:43;7.80;99.90
52867;DHT22;38739;53.324;6.862;2022-12-22T16:33:12;7.80;99.90
52867;DHT22;38739;53.324;6.862;2022-12-22T16:35:39;7.80;99.90
52867;DHT22;38739;53.324;6.862;2022-12-22T16:38:04;7.80;99.90
52867;DHT22;38739;53.324;6.862;2022-12-22T16:40:31;7.80;99.90
52867;DHT22;38739;53.324;6.862;2022-12-22T16:45:36;7.80;99.90
52867;DHT22;38739;53.324;6.862;2022-12-22T16:48:17;7.80;99.90
52867;DHT22;38739;53.324;6.862;2022-12-22T16:50:45;7.70;99.90
52867;DHT22;38739;53.324;6.862;2022-12-22T16:53:12;7.70;99.90
52867;DHT22;38739;53.324;6.862;2022-12-22T16:55:39;7.70;99.90
52867;DHT22;38739;53.324;6.862;2022-12-22T16:58:04;7.70;99.90
52867;DHT22;38739;53.324;6.862;2022-12-22T17:00:31;7.70;99.90
52867;DHT22;38739;53.324;6.862;2022-12-22T17:05:41;7.60;99.90
52867;DHT22;38739;53.324;6.862;2022-12-22T17:08:15;7.60;99.90
52867;DHT22;38739;53.324;6.862;2022-12-22T17:10:42;7.60;99.90
52867;DHT22;38739;53.324;6.862;2022-12-22T17:13:08;7.50;99.90
52867;DHT22;38739;53.324;6.862;2022-12-22T17:15:35;7.50;99.90
52867;DHT22;38739;53.324;6.862;2022-12-22T17:18:01;7.50;99.90
52867;DHT22;38739;53.324;6.862;2022-12-22T17:20:28;7.50;99.90
52867;DHT22;38739;53.324;6.862;2022-12-22T17:22:57;7.50;99.90
52867;DHT22;38739;53.324;6.862;2022-12-22T17:25:26;7.50;99.90
52867;DHT22;38739;53.324;6.862;2022-12-22T17:27:53;7.50;99.90
52867;DHT22;38739;53.324;6.862;2022-12-22T17:30:21;7.50;99.90
52867;DHT22;38739;53.324;6.862;2022-12-22T17:32:48;7.50;99.90
52867;DHT22;38739;53.324;6.862;2022-12-22T17:35:15;7.40;99.90
52867;DHT22;38739;53.324;6.862;2022-12-22T17:37:43;7.40;99.90
52867;DHT22;38739;53.324;6.862;2022-12-22T17:40:24;7.50;99.90
52867;DHT22;38739;53.324;6.862;2022-12-22T17:42:55;7.40;99.90
52867;DHT22;38739;53.324;6.862;2022-12-22T17:45:23;7.40;99.90
52867;DHT22;38739;53.324;6.862;2022-12-22T17:47:49;7.40;99.90
52867;DHT22;38739;53.324;6.862;2022-12-22T17:50:17;7.40;99.90
52867;DHT22;38739;53.324;6.862;2022-12-22T17:52:43;7.40;99.90
52867;DHT22;38739;53.324;6.862;2022-12-22T17:55:21;7.40;99.90
52867;DHT22;38739;53.324;6.862;2022-12-22T17:57:48;7.40;99.90
52867;DHT22;38739;53.324;6.862;2022-12-22T18:00:22;7.40;99.90
52867;DHT22;38739;53.324;6.862;2022-12-22T18:02:49;7.40;99.90
52867;DHT22;38739;53.324;6.862;2022-12-22T18:05:18;7.40;99.90
52867;DHT22;38739;53.324;6.862;2022-12-22T18:07:44;7.40;99.90
52867;DHT22;38739;53.324;6.862;2022-12-22T18:10:29;7.40;99.90
52867;DHT22;38739;53.324;6.862;2022-12-22T18:12:57;7.40;99.90
52867;DHT22;38739;53.324;6.862;2022-12-22T18:15:24;7.40;99.90
52867;DHT22;38739;53.324;6.862;2022-12-22T18:17:50;7.40;99.90
52867;DHT22;38739;53.324;6.862;2022-12-22T18:20:22;7.40;99.90
52867;DHT22;38739;53.324;6.862;2022-12-22T18:23:15;7.40;99.90
52867;DHT22;38739;53.324;6.862;2022-12-22T18:25:41;7.40;99.90
52867;DHT22;38739;53.324;6.862;2022-12-22T18:28:14;7.40;99.90